Time;durP1;ratioP1;P1;durP2;ratioP2;P2;SDS_P1;SDS_P2;PMS_P1;PMS_P2;Temp;Humidity;BMP_temperature;BMP_pressure;BME280_temperature;BME280_humidity;BME280_pressure;Samples;Min_cycle;Max_cycle;Signal;HPM_P1;HPM_P2
2022/09/26 00:01:15;;;;;;;5.22;2.03;;;;;;;11.98;84.29;100816.47;5009472;28;20482;-76
2022/09/26 00:03:49;;;;;;;6.10;1.98;;;;;;;11.77;84.84;100817.09;5012854;28;20041;-76
2022/09/26 00:06:17;;;;;;;6.68;2.22;;;;;;;11.93;84.64;100820.47;5008422;28;20025;-76
2022/09/26 00:08:43;;;;;;;4.47;2.10;;;;;;;11.96;84.25;100800.03;5007286;28;20382;-76
2022/09/26 00:11:11;;;;;;;5.78;2.40;;;;;;;11.97;84.04;100812.06;5012225;28;20536;-75
2022/09/26 00:13:38;;;;;;;8.25;2.40;;;;;;;12.07;84.67;100807.72;5013272;28;20045;-76
2022/09/26 00:16:05;;;;;;;4.93;2.08;;;;;;;11.91;84.20;100803.22;5018085;28;20041;-75
2022/09/26 00:18:30;;;;;;;5.28;2.67;;;;;;;11.97;84.22;100782.03;5012919;28;20056;-76
2022/09/26 00:21:11;;;;;;;4.60;2.15;;;;;;;11.82;84.79;100785.88;5010942;28;20381;-75
2022/09/26 00:23:37;;;;;;;6.97;2.45;;;;;;;11.86;85.38;100772.69;5018908;28;20094;-75
2022/09/26 00:26:03;;;;;;;3.03;1.90;;;;;;;11.98;84.80;100761.19;5014436;28;20033;-75
2022/09/26 00:28:28;;;;;;;5.28;2.55;;;;;;;11.88;84.86;100761.91;5013446;28;20781;-75
2022/09/26 00:30:55;;;;;;;8.88;3.13;;;;;;;11.84;84.97;100761.03;5017472;28;20048;-76
2022/09/26 00:33:21;;;;;;;4.78;2.67;;;;;;;11.98;84.58;100751.97;5013234;28;20041;-75
2022/09/26 00:35:54;;;;;;;4.03;1.83;;;;;;;11.90;84.39;100745.50;5014173;28;20374;-76
2022/09/26 00:38:19;;;;;;;;;;;;;;;11.89;84.38;100738.28;5026513;28;20033;-75
2022/09/26 00:40:46;;;;;;;3.17;1.90;;;;;;;11.87;84.72;100729.44;5025147;28;20568;-75
2022/09/26 00:43:40;;;;;;;7.70;2.28;;;;;;;11.91;84.61;100726.66;5022939;28;20039;-74
2022/09/26 00:46:21;;;;;;;6.30;2.33;;;;;;;11.90;84.52;100714.63;5016846;28;20436;-75
2022/09/26 00:48:55;;;;;;;4.57;2.10;;;;;;;11.97;84.81;100709.09;5014374;28;20039;-76
2022/09/26 00:51:21;;;;;;;5.03;2.53;;;;;;;11.92;84.69;100715.06;5016688;28;20134;-76
2022/09/26 00:53:49;;;;;;;4.75;2.17;;;;;;;11.85;85.23;100706.56;5010112;28;20370;-76
2022/09/26 00:56:29;;;;;;;4.90;2.05;;;;;;;11.97;84.82;100697.88;5025423;28;20138;-75
2022/09/26 00:59:04;;;;;;;4.97;1.88;;;;;;;11.80;85.28;100690.09;5016756;28;20037;-76
2022/09/26 01:01:29;;;;;;;6.38;2.13;;;;;;;11.93;84.93;100683.03;5007587;28;20057;-75
2022/09/26 01:03:56;;;;;;;4.03;1.85;;;;;;;11.83;86.04;100683.72;5006393;28;20485;-75
2022/09/26 01:06:21;;;;;;;2.95;2.08;;;;;;;11.90;85.38;100668.97;5013321;28;20635;-75
2022/09/26 01:08:53;;;;;;;3.55;2.13;;;;;;;11.95;85.35;100663.78;5011790;28;20609;-76
2022/09/26 01:11:19;;;;;;;4.65;2.20;;;;;;;11.99;84.99;100656.22;5011509;28;20042;-75
2022/09/26 01:13:45;;;;;;;3.80;2.15;;;;;;;12.06;84.76;100651.81;5010718;28;20033;-76
2022/09/26 01:16:11;;;;;;;3.75;1.83;;;;;;;11.97;85.84;100643.75;5010057;28;20039;-75
2022/09/26 01:18:36;;;;;;;3.63;1.90;;;;;;;11.98;85.74;100634.16;5012343;28;20056;-76
2022/09/26 01:21:14;;;;;;;4.10;2.28;;;;;;;11.94;86.27;100625.72;5012251;28;20029;-76
2022/09/26 01:24:25;;;;;;;6.65;2.47;;;;;;;11.88;86.96;100630.09;5006876;28;20046;-76
2022/09/26 01:26:57;;;;;;;6.28;2.80;;;;;;;11.90;87.00;100622.09;5009531;28;20052;-75
2022/09/26 01:29:35;;;;;;;6.75;2.80;;;;;;;11.94;87.07;100608.88;5025259;28;20039;-75
2022/09/26 01:35:27;;;;;;;4.50;2.35;;;;;;;11.91;87.83;100590.06;5009720;28;20123;-75
2022/09/26 01:38:13;;;;;;;8.00;2.80;;;;;;;11.90;87.73;100582.81;5008538;28;20409;-75
2022/09/26 01:40:57;;;;;;;4.68;2.30;;;;;;;11.92;87.79;100574.81;5014266;28;20120;-75
2022/09/26 01:43:31;;;;;;;4.60;3.05;;;;;;;11.90;88.30;100577.22;5016558;28;21301;-76
2022/09/26 01:46:23;;;;;;;4.82;2.63;;;;;;;11.90;88.26;100580.00;5013654;28;20036;-76
2022/09/26 01:48:57;;;;;;;11.03;2.93;;;;;;;11.97;87.56;100571.66;5012030;28;20029;-76
2022/09/26 01:51:34;;;;;;;7.00;3.90;;;;;;;11.97;87.59;100563.22;5011016;28;20770;-75
2022/09/26 01:54:48;;;;;;;5.75;2.80;;;;;;;11.83;88.71;100563.13;5012784;28;22664;-76
2022/09/26 01:57:24;;;;;;;9.02;3.67;;;;;;;11.86;88.64;100567.94;4985241;28;21515;-76
2022/09/26 01:59:55;;;;;;;8.27;3.22;;;;;;;11.82;89.61;100563.53;4984918;28;20029;-76
2022/09/26 02:02:25;;;;;;;5.47;3.00;;;;;;;11.87;88.69;100544.31;5000087;28;20041;-75
2022/09/26 02:04:56;;;;;;;5.22;2.95;;;;;;;11.96;88.03;100544.78;5009695;28;20425;-75
2022/09/26 02:07:32;;;;;;;6.45;2.95;;;;;;;11.91;89.06;100547.97;5007832;28;20111;-76
2022/09/26 02:10:04;;;;;;;5.55;2.95;;;;;;;11.75;89.98;100550.28;5009940;28;20050;-76
2022/09/26 02:12:36;;;;;;;7.60;3.60;;;;;;;11.93;87.95;100542.78;5006969;28;20025;-75
2022/09/26 02:15:06;;;;;;;3.65;2.50;;;;;;;11.84;89.71;100533.88;5009328;28;20041;-75
2022/09/26 02:17:40;;;;;;;6.18;2.95;;;;;;;11.85;89.48;100529.91;5007934;28;20147;-75
2022/09/26 02:20:14;;;;;;;7.05;3.28;;;;;;;11.88;89.09;100529.13;5010658;28;20125;-75
2022/09/26 02:22:39;;;;;;;3.50;3.10;;;;;;;11.90;89.00;100525.94;5023928;28;20086;-76
2022/09/26 02:25:07;;;;;;;5.53;2.70;;;;;;;11.97;87.87;100520.34;5012411;28;20045;-75
2022/09/26 02:27:32;;;;;;;4.32;2.75;;;;;;;11.90;88.96;100528.75;5013219;28;20029;-75
2022/09/26 02:29:58;;;;;;;6.72;3.53;;;;;;;11.88;88.95;100512.28;5017227;28;20033;-75
2022/09/26 02:32:28;;;;;;;5.97;3.22;;;;;;;11.91;89.50;100513.50;5010524;28;20511;-76
2022/09/26 02:34:55;;;;;;;8.13;3.00;;;;;;;11.92;89.71;100507.50;5014443;28;20038;-75
2022/09/26 02:37:20;;;;;;;6.50;4.43;;;;;;;11.76;91.87;100509.81;5009601;28;20045;-76
2022/09/26 02:39:48;;;;;;;8.30;3.05;;;;;;;11.84;91.21;100503.03;5017020;28;20063;-75
2022/09/26 02:42:40;;;;;;;5.68;2.88;;;;;;;11.79;90.89;100498.63;5020967;28;20040;-76
2022/09/26 02:45:31;;;;;;;5.00;2.85;;;;;;;11.78;91.52;100496.22;5019053;28;20505;-75
2022/09/26 02:48:24;;;;;;;9.60;3.75;;;;;;;11.85;91.42;100490.63;5010277;28;20175;-75
2022/09/26 02:51:09;;;;;;;7.85;3.33;;;;;;;11.81;90.98;100492.63;5010777;28;20674;-75
2022/09/26 02:54:13;;;;;;;7.15;3.38;;;;;;;11.74;91.81;100484.16;5010750;28;20048;-75
2022/09/26 02:56:56;;;;;;;10.23;3.72;;;;;;;11.69;92.83;100473.34;4990785;28;20421;-75
2022/09/26 02:59:28;;;;;;;;;;;;;;;11.62;93.29;100473.34;5012413;28;20053;-75
2022/09/26 03:02:10;;;;;;;12.20;4.38;;;;;;;11.63;93.76;100467.31;5006390;28;19927;-75
2022/09/26 03:04:59;;;;;;;4.97;3.40;;;;;;;11.56;94.59;100473.72;5003331;28;20061;-75
2022/09/26 03:07:45;;;;;;;6.35;3.17;;;;;;;11.65;93.38;100464.13;5010753;28;20439;-76
2022/09/26 03:10:12;;;;;;;6.20;3.30;;;;;;;11.69;93.66;100453.72;5012474;28;20060;-75
2022/09/26 03:12:40;;;;;;;5.85;4.38;;;;;;;11.63;93.20;100460.91;5008839;28;21172;-75
2022/09/26 03:15:08;;;;;;;4.55;3.28;;;;;;;11.52;95.71;100444.84;5006867;28;20125;-75
2022/09/26 03:17:36;;;;;;;9.10;3.60;;;;;;;11.65;95.01;100447.31;5006221;28;20030;-76
2022/09/26 03:20:10;;;;;;;13.55;4.13;;;;;;;11.62;94.01;100437.69;5012562;28;20123;-75
2022/09/26 03:22:37;;;;;;;10.20;4.47;;;;;;;11.79;95.02;100433.34;5007820;28;20405;-75
2022/09/26 03:25:05;;;;;;;5.32;3.70;;;;;;;11.60;94.77;100428.88;5012229;28;20188;-75
2022/09/26 03:27:32;;;;;;;8.40;4.68;;;;;;;11.43;97.75;100424.81;5009690;28;20122;-75
2022/09/26 03:29:58;;;;;;;7.97;4.18;;;;;;;11.31;98.33;100411.94;5009582;28;20063;-75
2022/09/26 03:32:23;;;;;;;11.85;4.70;;;;;;;11.37;97.90;100410.38;5006328;28;20552;-75
2022/09/26 03:34:50;;;;;;;8.48;4.32;;;;;;;11.27;98.89;100410.34;5013669;28;20072;-75
2022/09/26 03:37:16;;;;;;;10.52;4.03;;;;;;;11.40;97.03;100405.97;5013474;28;20041;-76
2022/09/26 03:39:42;;;;;;;6.93;4.50;;;;;;;11.37;97.29;100398.38;5018731;28;20111;-75
2022/09/26 03:42:08;;;;;;;8.57;4.03;;;;;;;11.44;97.04;100389.19;5011560;28;20048;-75
2022/09/26 03:44:34;;;;;;;9.23;5.30;;;;;;;11.46;96.82;100386.78;5013630;28;20633;-75
2022/09/26 03:46:59;;;;;;;7.40;4.28;;;;;;;11.50;96.83;100382.78;5008335;28;21279;-75
2022/09/26 03:49:24;;;;;;;7.40;4.32;;;;;;;11.46;96.16;100378.38;5021890;28;20037;-75
2022/09/26 03:51:50;;;;;;;8.20;4.88;;;;;;;11.31;97.21;100367.13;5018669;28;20048;-74
2022/09/26 03:54:15;;;;;;;9.02;5.05;;;;;;;11.37;96.86;100359.94;5016724;28;20703;-75
2022/09/26 03:56:41;;;;;;;13.40;5.55;;;;;;;11.46;96.70;100353.94;5017454;28;20045;-75
2022/09/26 03:59:07;;;;;;;7.82;4.22;;;;;;;11.37;96.60;100342.34;5015714;28;20037;-75
2022/09/26 04:01:33;;;;;;;7.85;4.95;;;;;;;11.36;96.34;100340.72;5012576;28;20769;-75
2022/09/26 04:03:58;;;;;;;6.85;4.25;;;;;;;11.51;94.50;100324.72;5013250;28;20112;-75
2022/09/26 04:06:24;;;;;;;6.60;4.32;;;;;;;11.38;95.88;100315.91;5013653;28;20029;-75
2022/09/26 04:08:51;;;;;;;11.48;5.07;;;;;;;11.34;96.36;100315.91;5018878;28;20053;-75
2022/09/26 04:11:20;;;;;;;11.18;5.38;;;;;;;11.30;95.45;100308.69;5008560;28;20511;-75
2022/09/26 04:13:46;;;;;;;6.70;4.65;;;;;;;11.38;95.38;100299.91;5010424;28;20026;-75
2022/09/26 04:16:13;;;;;;;8.65;4.70;;;;;;;11.29;96.15;100302.28;5011812;28;20038;-75
2022/09/26 04:18:38;;;;;;;9.60;5.10;;;;;;;11.13;96.25;100296.22;5016885;28;20033;-75
2022/09/26 04:21:06;;;;;;;8.82;5.30;;;;;;;11.32;95.11;100300.69;5013924;28;20029;-75
2022/09/26 04:23:35;;;;;;;10.70;5.85;;;;;;;11.28;94.47;100297.06;5011230;28;20747;-75
2022/09/26 04:26:13;;;;;;;12.68;5.70;;;;;;;11.37;93.21;100292.69;5008248;28;20073;-75
2022/09/26 04:28:40;;;;;;;8.60;5.70;;;;;;;11.29;94.21;100276.28;5014849;28;20029;-74
2022/09/26 04:31:06;;;;;;;9.73;6.05;;;;;;;11.30;93.63;100275.06;5015740;28;20053;-74
2022/09/26 04:33:32;;;;;;;10.60;6.20;;;;;;;11.37;92.68;100263.88;5013414;28;20084;-75
2022/09/26 04:36:06;;;;;;;11.40;5.57;;;;;;;11.25;93.17;100269.84;5016140;28;20117;-76
2022/09/26 04:38:32;;;;;;;10.73;5.63;;;;;;;11.30;93.46;100269.44;5022219;28;20117;-75
2022/09/26 04:41:13;;;;;;;7.85;5.35;;;;;;;11.21;93.56;100269.03;5028928;28;20054;-75
2022/09/26 04:43:39;;;;;;;12.15;6.00;;;;;;;11.13;93.59;100252.25;5021972;28;20465;-75
2022/09/26 04:46:16;;;;;;;9.68;5.30;;;;;;;11.18;93.32;100257.44;5018595;28;20120;-75
2022/09/26 04:48:42;;;;;;;10.15;5.93;;;;;;;11.31;92.87;100237.44;5017823;28;20026;-76
2022/09/26 04:51:10;;;;;;;10.63;5.78;;;;;;;11.26;92.30;100237.81;5017880;28;20484;-75
2022/09/26 04:53:37;;;;;;;9.13;5.53;;;;;;;11.22;93.05;100232.25;5016675;28;20064;-75
2022/09/26 04:56:04;;;;;;;9.52;5.65;;;;;;;11.30;91.95;100227.41;5023024;28;20029;-75
2022/09/26 04:58:29;;;;;;;11.80;6.28;;;;;;;10.99;93.02;100230.59;5018111;28;20117;-75
2022/09/26 05:00:54;;;;;;;11.02;5.80;;;;;;;11.10;92.89;100213.81;5023395;28;20049;-75
2022/09/26 05:03:20;;;;;;;8.88;5.53;;;;;;;11.21;92.22;100211.00;5021623;28;20030;-75
2022/09/26 05:05:49;;;;;;;9.75;5.60;;;;;;;11.05;92.37;100208.59;5021062;28;20095;-75
2022/09/26 05:08:15;;;;;;;9.25;5.68;;;;;;;11.18;92.33;100195.00;5013481;28;20029;-76
2022/09/26 05:10:42;;;;;;;10.57;5.10;;;;;;;11.22;91.87;100200.63;5023877;28;20120;-75
2022/09/26 05:13:08;;;;;;;8.55;6.03;;;;;;;11.15;92.16;100193.81;5024989;28;20030;-75
2022/09/26 05:15:38;;;;;;;8.55;5.07;;;;;;;11.16;92.23;100186.22;5016550;28;20048;-75
2022/09/26 05:18:06;;;;;;;9.32;5.22;;;;;;;11.08;92.36;100185.38;5018694;28;20175;-75
2022/09/26 05:20:33;;;;;;;9.73;4.82;;;;;;;11.30;91.38;100182.59;5021316;28;20034;-75
2022/09/26 05:22:58;;;;;;;8.18;5.05;;;;;;;11.29;90.19;100195.81;5019602;28;20028;-75
2022/09/26 05:28:12;;;;;;;7.95;4.55;;;;;;;11.24;91.16;100175.81;5019334;28;20035;-75
2022/09/26 05:30:39;;;;;;;7.25;4.78;;;;;;;10.94;91.45;100169.38;5024276;28;20048;-75
2022/09/26 05:33:05;;;;;;;8.63;5.55;;;;;;;11.08;91.28;100168.59;5010229;28;20125;-75
2022/09/26 05:35:34;;;;;;;10.57;5.22;;;;;;;11.02;91.48;100164.56;5016366;28;20047;-75
2022/09/26 05:38:03;;;;;;;10.90;6.60;;;;;;;11.05;91.84;100158.19;5010005;28;20029;-75
2022/09/26 05:43:14;;;;;;;9.10;5.38;;;;;;;11.17;91.47;100151.38;5018486;28;20090;-75
2022/09/26 05:45:40;;;;;;;11.63;4.43;;;;;;;11.15;91.80;100160.22;5014731;28;20057;-75
2022/09/26 05:48:06;;;;;;;10.02;4.95;;;;;;;11.04;91.13;100150.97;5016447;28;20288;-75
2022/09/26 05:50:32;;;;;;;12.80;4.93;;;;;;;10.97;92.63;100143.38;5017237;28;20071;-75
2022/09/26 05:52:58;;;;;;;8.35;5.20;;;;;;;10.98;92.27;100141.38;5015419;28;20056;-75
2022/09/26 05:55:25;;;;;;;10.63;4.88;;;;;;;11.07;91.31;100138.16;5017275;28;20785;-75
2022/09/26 05:57:57;;;;;;;10.40;4.47;;;;;;;11.06;90.28;100123.38;5003331;28;20438;-75
2022/09/26 06:00:23;;;;;;;10.15;4.10;;;;;;;11.04;91.38;100127.78;5008366;28;20727;-76
2022/09/26 06:02:55;;;;;;;10.15;4.32;;;;;;;11.04;91.04;100133.38;5016974;28;20125;-76
2022/09/26 06:05:22;;;;;;;9.75;4.38;;;;;;;10.92;91.47;100126.97;5008262;28;20052;-74
2022/09/26 06:07:48;;;;;;;7.13;4.47;;;;;;;10.96;91.20;100127.78;5001830;28;20438;-74
2022/09/26 06:10:14;;;;;;;8.70;4.30;;;;;;;11.01;91.37;100120.97;5013927;28;20025;-74
2022/09/26 06:12:39;;;;;;;8.63;4.07;;;;;;;11.21;90.76;100120.56;5011401;28;20508;-75
2022/09/26 06:15:05;;;;;;;8.80;3.72;;;;;;;11.23;90.24;100106.97;5013169;28;20037;-76
2022/09/26 06:17:31;;;;;;;7.97;4.60;;;;;;;11.09;91.02;100097.38;5016988;28;20370;-75
2022/09/26 06:19:56;;;;;;;7.47;3.95;;;;;;;11.01;91.24;100095.78;5014257;28;20140;-75
2022/09/26 06:22:23;;;;;;;8.75;3.95;;;;;;;11.20;90.21;100091.78;5007333;28;20025;-75
2022/09/26 06:24:48;;;;;;;9.27;3.50;;;;;;;10.99;90.78;100086.97;5015134;28;20033;-76
2022/09/26 06:27:13;;;;;;;6.90;3.63;;;;;;;10.97;91.45;100092.19;5016412;28;20454;-76
2022/09/26 06:29:39;;;;;;;8.05;4.75;;;;;;;11.01;90.92;100087.38;5015886;28;20206;-76
2022/09/26 06:32:04;;;;;;;7.45;3.97;;;;;;;10.98;91.08;100075.00;5017711;28;20045;-76
2022/09/26 06:34:29;;;;;;;5.18;3.53;;;;;;;10.87;91.45;100082.56;5024187;28;20041;-76
2022/09/26 06:36:55;;;;;;;7.60;3.75;;;;;;;10.85;92.06;100075.78;5020619;28;20056;-76
2022/09/26 06:39:20;;;;;;;7.50;4.07;;;;;;;10.88;90.64;100060.97;5010152;28;20045;-75
2022/09/26 06:41:46;;;;;;;9.27;4.15;;;;;;;10.82;91.73;100054.19;5028911;28;20029;-75
2022/09/26 06:44:11;;;;;;;9.10;3.72;;;;;;;11.00;90.20;100054.97;5019789;28;20029;-75
2022/09/26 06:46:37;;;;;;;9.85;3.47;;;;;;;11.02;90.04;100041.38;5020346;28;20105;-75
2022/09/26 06:49:02;;;;;;;8.45;4.22;;;;;;;10.81;91.11;100044.97;5017930;28;20025;-73
2022/09/26 06:51:28;;;;;;;9.10;3.58;;;;;;;10.83;90.94;100039.78;5028450;28;20373;-74
2022/09/26 06:53:53;;;;;;;5.60;3.38;;;;;;;10.80;91.83;100045.38;5020253;28;20080;-74
2022/09/26 06:56:18;;;;;;;6.45;3.83;;;;;;;10.86;90.81;100038.19;5021967;28;20132;-74
2022/09/26 06:58:44;;;;;;;7.75;3.42;;;;;;;10.70;91.46;100036.56;5023176;28;20408;-72
2022/09/26 07:01:10;;;;;;;13.65;4.05;;;;;;;10.77;91.56;100025.41;5019335;28;20061;-74
2022/09/26 07:03:35;;;;;;;8.23;3.15;;;;;;;11.00;90.78;100026.97;5025442;28;20397;-74
2022/09/26 07:06:02;;;;;;;8.20;3.40;;;;;;;10.88;91.30;100018.97;5027973;28;20030;-73
2022/09/26 07:08:28;;;;;;;4.97;3.22;;;;;;;11.06;90.22;100016.97;5021605;28;20021;-73
2022/09/26 07:11:01;;;;;;;6.60;3.33;;;;;;;10.85;90.87;100019.78;5020629;28;20392;-73
2022/09/26 07:13:28;;;;;;;5.82;3.42;;;;;;;10.82;91.56;100009.41;5028904;28;20029;-73
2022/09/26 07:15:57;;;;;;;7.93;4.40;;;;;;;10.94;91.73;100008.97;5023539;28;20029;-73
2022/09/26 07:18:22;;;;;;;9.40;5.03;;;;;;;10.87;91.74;100006.19;5023297;28;20436;-72
2022/09/26 07:20:48;;;;;;;6.68;3.15;;;;;;;10.83;92.28;100008.97;5017632;28;20072;-74
2022/09/26 07:23:15;;;;;;;7.88;4.15;;;;;;;11.08;90.42;99989.34;5021615;28;20029;-73
2022/09/26 07:25:44;;;;;;;9.50;3.33;;;;;;;10.93;90.61;99985.78;5016850;28;20045;-74
2022/09/26 07:28:09;;;;;;;6.78;3.15;;;;;;;11.02;90.53;99995.75;5021012;28;20038;-73
2022/09/26 07:30:35;;;;;;;7.65;3.83;;;;;;;10.99;91.16;99988.97;5017099;28;20036;-75
2022/09/26 07:33:02;;;;;;;4.70;3.38;;;;;;;11.04;90.69;99988.56;5023008;28;20448;-74
2022/09/26 07:35:33;;;;;;;5.47;2.88;;;;;;;11.22;91.05;99977.31;5024827;28;20029;-73
2022/09/26 07:37:58;;;;;;;7.90;4.57;;;;;;;11.18;89.90;99970.94;5023989;28;20393;-72
2022/09/26 07:40:25;;;;;;;8.07;4.18;;;;;;;11.19;90.05;99959.31;5024043;28;20037;-73
2022/09/26 07:42:51;;;;;;;5.75;2.95;;;;;;;11.23;90.02;99950.09;5024868;28;20951;-73
2022/09/26 07:50:10;;;;;;;6.60;3.60;;;;;;;11.25;89.38;99950.50;5023480;28;20572;-75
2022/09/26 07:50:56;;;;;;;7.35;3.28;;;;;;;11.29;89.66;99954.09;5026475;28;20048;-74
2022/09/26 07:53:21;;;;;;;6.50;3.40;;;;;;;11.36;89.38;99954.88;5021883;28;20119;-74
2022/09/26 07:56:05;;;;;;;9.60;3.58;;;;;;;11.28;89.66;99952.47;5025859;28;20598;-74
2022/09/26 07:58:37;;;;;;;8.57;3.40;;;;;;;11.34;89.53;99956.47;5018247;28;20045;-75
2022/09/26 08:01:04;;;;;;;7.13;2.63;;;;;;;11.35;88.63;99932.84;5019465;28;20022;-74
2022/09/26 08:03:29;;;;;;;7.18;3.00;;;;;;;11.30;89.53;99956.50;5023792;28;20111;-74
2022/09/26 08:06:01;;;;;;;4.55;3.05;;;;;;;11.41;89.44;99945.25;5026776;28;20528;-74
2022/09/26 08:08:28;;;;;;;9.48;4.25;;;;;;;11.33;89.72;99940.88;5017604;28;20405;-75
2022/09/26 08:10:56;;;;;;;9.40;3.72;;;;;;;11.30;89.37;99925.69;5017158;28;20034;-74
2022/09/26 08:13:23;;;;;;;5.03;3.13;;;;;;;11.43;88.87;99926.03;5018407;28;20152;-75
2022/09/26 08:15:49;;;;;;;5.38;3.10;;;;;;;11.45;88.28;99934.00;5018116;28;20029;-73
2022/09/26 08:18:14;;;;;;;9.23;3.20;;;;;;;11.47;88.48;99932.41;5023902;28;20029;-73
2022/09/26 08:20:40;;;;;;;7.40;3.33;;;;;;;11.50;88.22;99925.19;5020272;28;20033;-74
2022/09/26 08:23:05;;;;;;;9.85;3.88;;;;;;;11.56;88.28;99917.94;5014225;28;20049;-74
2022/09/26 08:25:30;;;;;;;6.95;3.58;;;;;;;11.51;88.27;99921.97;5013838;28;20136;-73
2022/09/26 08:27:59;;;;;;;8.65;3.22;;;;;;;11.50;88.98;99919.56;5013340;28;20052;-74
2022/09/26 08:30:30;;;;;;;10.38;3.50;;;;;;;11.55;88.73;99917.16;5017043;28;20111;-74
2022/09/26 08:32:57;;;;;;;8.38;3.63;;;;;;;11.45;89.48;99912.41;5012156;28;20469;-74
2022/09/26 08:35:23;;;;;;;7.18;2.92;;;;;;;11.49;89.59;99909.56;5015078;28;20038;-74
2022/09/26 08:37:48;;;;;;;6.55;3.80;;;;;;;11.45;89.44;99901.19;5024433;28;20134;-74
2022/09/26 08:40:14;;;;;;;12.15;3.20;;;;;;;11.53;89.92;99913.97;5014265;28;20516;-74
2022/09/26 08:43:07;;;;;;;7.47;3.60;;;;;;;11.51;90.42;99904.34;5016774;28;20076;-74
2022/09/26 08:48:54;;;;;;;5.55;3.13;;;;;;;11.48;89.81;99900.38;5018260;28;20080;-74
2022/09/26 08:51:33;;;;;;;8.35;3.35;;;;;;;11.56;89.26;99889.94;5020244;28;20118;-74
2022/09/26 08:54:11;;;;;;;9.57;3.97;;;;;;;11.57;90.37;99881.13;5024335;28;20033;-73
2022/09/26 08:56:49;;;;;;;7.85;3.40;;;;;;;11.65;89.68;99859.44;5027056;28;20409;-74
2022/09/26 08:59:28;;;;;;;8.35;3.40;;;;;;;11.67;89.53;99867.44;5016338;28;20049;-73
2022/09/26 09:01:58;;;;;;;11.80;3.35;;;;;;;11.68;89.82;99857.81;5016892;28;20052;-74
2022/09/26 09:04:30;;;;;;;8.27;4.07;;;;;;;11.71;90.04;99857.00;5019330;28;20033;-74
2022/09/26 09:07:10;;;;;;;6.40;3.20;;;;;;;11.70;89.17;99852.59;5014795;28;20091;-73
2022/09/26 09:09:37;;;;;;;5.22;3.90;;;;;;;11.73;88.89;99846.16;5016668;28;20270;-74
2022/09/26 09:12:34;;;;;;;7.63;4.75;;;;;;;11.71;89.33;99840.19;5016587;28;20034;-73
2022/09/26 09:15:22;;;;;;;8.13;4.03;;;;;;;11.76;89.77;99842.53;5013001;28;20045;-74
2022/09/26 09:18:10;;;;;;;7.28;3.28;;;;;;;11.76;89.59;99848.97;5012705;28;20481;-75
2022/09/26 09:20:48;;;;;;;13.27;4.18;;;;;;;11.73;90.20;99838.56;5015748;28;20128;-74
2022/09/26 09:24:01;;;;;;;6.07;3.35;;;;;;;11.73;89.38;99832.16;5013236;28;20493;-74
2022/09/26 09:26:42;;;;;;;9.38;4.65;;;;;;;11.82;89.58;99837.28;5014215;28;20056;-75
2022/09/26 09:29:45;;;;;;;7.47;4.50;;;;;;;11.80;90.29;99832.09;5008467;28;20033;-75
2022/09/26 09:32:16;;;;;;;8.07;3.60;;;;;;;11.79;90.46;99836.91;5014329;28;20517;-74
2022/09/26 09:34:45;;;;;;;10.10;4.18;;;;;;;11.76;90.70;99836.94;5013999;28;20497;-75
2022/09/26 09:37:22;;;;;;;6.43;3.88;;;;;;;11.79;91.70;99836.13;5014849;28;20076;-75
2022/09/26 09:39:49;;;;;;;10.43;3.65;;;;;;;11.78;91.29;99828.91;5010427;28;20088;-75
2022/09/26 09:42:22;;;;;;;8.98;3.60;;;;;;;11.93;90.28;99824.84;5014500;28;20551;-75
2022/09/26 09:44:54;;;;;;;5.10;3.30;;;;;;;11.94;90.74;99832.03;5024961;28;20468;-75
2022/09/26 09:47:19;;;;;;;7.85;4.00;;;;;;;11.83;91.41;99824.84;5011745;28;20508;-75
2022/09/26 09:49:47;;;;;;;9.90;3.90;;;;;;;11.89;92.71;99818.44;5020221;28;20045;-74
2022/09/26 09:52:40;;;;;;;5.30;3.70;;;;;;;11.76;93.96;99814.50;5012705;28;20022;-75
2022/09/26 09:55:35;;;;;;;7.70;4.22;;;;;;;11.77;95.50;99827.31;5015712;28;20072;-75
2022/09/26 09:58:45;;;;;;;7.60;3.97;;;;;;;11.73;97.11;99806.94;5020129;28;21224;-75
2022/09/26 10:01:33;;;;;;;5.22;3.92;;;;;;;11.59;97.85;99814.25;4991335;28;20060;-74
2022/09/26 10:04:24;;;;;;;11.95;4.13;;;;;;;11.63;97.64;99793.78;5013987;28;20562;-75
2022/09/26 10:06:50;;;;;;;8.10;4.22;;;;;;;11.70;98.50;99804.94;5010843;28;20040;-75
2022/09/26 10:09:40;;;;;;;7.18;4.18;;;;;;;11.57;99.47;99799.03;5015241;28;20029;-75
2022/09/26 10:12:13;;;;;;;5.93;4.07;;;;;;;11.55;100.00;99793.03;5011253;28;20045;-75
2022/09/26 10:15:06;;;;;;;8.95;4.10;;;;;;;11.67;100.00;99795.34;5011868;28;20087;-74
2022/09/26 10:17:32;;;;;;;5.28;3.45;;;;;;;11.70;100.00;99769.31;5013046;28;20150;-75
2022/09/26 10:19:57;;;;;;;7.38;3.65;;;;;;;11.54;100.00;99780.25;5018531;28;20049;-75
2022/09/26 10:22:31;;;;;;;8.30;5.45;;;;;;;11.58;100.00;99781.81;5020707;28;20124;-75
2022/09/26 10:25:04;;;;;;;10.48;3.95;;;;;;;11.60;100.00;99770.97;5019754;28;21044;-76
2022/09/26 10:27:34;;;;;;;11.85;4.28;;;;;;;11.74;99.56;99777.66;5016469;28;20037;-76
2022/09/26 10:30:08;;;;;;;7.13;3.28;;;;;;;11.74;98.44;99772.06;5014171;28;23892;-75
2022/09/26 10:32:44;;;;;;;7.50;4.45;;;;;;;11.69;100.00;99769.72;5015271;28;20025;-76
2022/09/26 10:35:43;;;;;;;10.18;4.95;;;;;;;11.66;100.00;99764.91;5018632;28;20497;-76
2022/09/26 10:38:21;;;;;;;8.75;4.32;;;;;;;11.73;100.00;99756.47;5015604;28;20409;-75
2022/09/26 10:40:53;;;;;;;7.72;4.18;;;;;;;11.81;99.39;99760.81;5017848;28;20042;-75
2022/09/26 10:43:22;;;;;;;8.48;4.05;;;;;;;11.79;100.00;99752.00;5016752;28;20485;-75
2022/09/26 10:45:58;;;;;;;8.90;5.15;;;;;;;11.77;100.00;99744.00;5010587;28;20033;-75
2022/09/26 10:48:52;;;;;;;8.00;4.60;;;;;;;11.81;100.00;99749.59;5016168;28;20022;-76
2022/09/26 10:51:41;;;;;;;9.57;5.18;;;;;;;11.84;100.00;99751.56;5013830;28;20401;-75
2022/09/26 10:54:15;;;;;;;8.02;4.07;;;;;;;11.86;100.00;99743.53;5017719;28;20041;-76
2022/09/26 10:56:46;;;;;;;6.88;4.90;;;;;;;11.89;100.00;99745.53;5018256;28;20038;-75
2022/09/26 10:59:14;;;;;;;8.60;4.65;;;;;;;11.87;100.00;99745.13;5016344;28;20053;-75
2022/09/26 11:01:44;;;;;;;6.22;4.43;;;;;;;11.83;100.00;99747.16;5018689;28;20041;-75
2022/09/26 11:07:05;;;;;;;8.27;4.68;;;;;;;11.82;100.00;99753.97;5015866;28;20130;-76
2022/09/26 11:09:30;;;;;;;8.05;4.43;;;;;;;11.77;100.00;99743.22;5018174;28;20036;-76
2022/09/26 11:11:55;;;;;;;13.27;4.65;;;;;;;11.72;100.00;99736.06;5015892;28;20404;-76
2022/09/26 11:14:30;;;;;;;9.35;5.13;;;;;;;11.82;100.00;99739.97;5016544;28;20120;-76
2022/09/26 11:16:56;;;;;;;10.57;5.03;;;;;;;11.71;100.00;99736.47;5019194;28;20029;-76
2022/09/26 11:19:47;;;;;;;6.82;4.53;;;;;;;11.78;100.00;99736.38;5017852;28;20099;-76
2022/09/26 11:22:26;;;;;;;8.02;5.15;;;;;;;11.75;100.00;99731.63;5018796;28;20746;-76
2022/09/26 11:25:23;;;;;;;9.38;4.63;;;;;;;11.77;100.00;99732.78;5018028;28;20029;-76
2022/09/26 11:27:57;;;;;;;8.98;5.95;;;;;;;11.70;100.00;99727.25;5028545;28;20049;-75
2022/09/26 11:30:26;;;;;;;7.70;4.28;;;;;;;11.80;100.00;99722.75;5013613;28;20385;-75
2022/09/26 11:32:55;;;;;;;6.22;5.05;;;;;;;11.77;100.00;99732.78;5015850;28;20029;-75
2022/09/26 11:35:38;;;;;;;6.78;4.00;;;;;;;11.83;100.00;99732.34;5020436;28;20044;-75
2022/09/26 11:38:21;;;;;;;6.50;4.70;;;;;;;11.84;100.00;99726.31;5017842;28;20044;-75
2022/09/26 11:41:35;;;;;;;6.88;3.95;;;;;;;11.86;100.00;99711.91;5013607;28;20452;-75
2022/09/26 11:44:34;;;;;;;10.80;3.85;;;;;;;11.83;100.00;99719.13;5031232;28;20063;-75
2022/09/26 11:47:17;;;;;;;10.98;4.63;;;;;;;11.90;100.00;99707.06;5011391;28;20052;-75
2022/09/26 11:50:22;;;;;;;7.15;3.92;;;;;;;11.90;100.00;99709.88;5019898;28;20030;-75
2022/09/26 11:53:16;;;;;;;7.85;3.42;;;;;;;11.86;100.00;99707.06;5018664;28;20501;-75
2022/09/26 11:56:02;;;;;;;8.05;4.55;;;;;;;11.74;100.00;99707.59;5018920;28;20048;-76
2022/09/26 11:58:40;;;;;;;5.78;3.67;;;;;;;11.89;100.00;99702.66;5017897;28;20515;-75
2022/09/26 12:01:38;;;;;;;5.03;3.42;;;;;;;11.92;100.00;99697.03;5015570;28;20106;-76
2022/09/26 12:04:16;;;;;;;4.55;3.45;;;;;;;11.93;100.00;99695.84;5013568;28;20064;-75
2022/09/26 12:07:07;;;;;;;6.32;4.07;;;;;;;11.95;100.00;99696.22;5018457;28;20551;-74
2022/09/26 12:10:07;;;;;;;5.72;3.15;;;;;;;11.95;100.00;99690.59;5008741;28;20526;-74